createdAt,value
2022-12-05T00:02:01.268Z,0.90
2022-12-05T00:04:29.424Z,0.80
2022-12-05T00:06:57.710Z,0.80
2022-12-05T00:09:26.073Z,0.80
2022-12-05T00:11:54.144Z,0.80
2022-12-05T00:14:22.235Z,0.80
2022-12-05T00:16:51.751Z,0.80
2022-12-05T00:19:20.026Z,0.80
2022-12-05T00:21:48.180Z,0.90
2022-12-05T00:24:17.505Z,0.80
2022-12-05T00:26:45.862Z,0.80
2022-12-05T00:29:14.627Z,0.80
2022-12-05T00:31:43.181Z,0.90
2022-12-05T00:34:12.751Z,0.80
2022-12-05T00:36:41.408Z,0.80
2022-12-05T00:39:12.535Z,0.80
2022-12-05T00:41:41.009Z,0.70
2022-12-05T00:44:09.859Z,0.70
2022-12-05T00:46:38.706Z,0.60
2022-12-05T00:49:08.269Z,0.60
2022-12-05T00:51:40.864Z,0.60
2022-12-05T00:54:11.502Z,0.60
2022-12-05T00:56:40.269Z,0.60
2022-12-05T00:59:08.708Z,0.70
2022-12-05T01:01:38.772Z,0.70
2022-12-05T01:04:09.586Z,0.70
2022-12-05T01:06:39.686Z,0.70
2022-12-05T01:09:08.871Z,0.60
2022-12-05T01:11:41.177Z,0.50
2022-12-05T01:14:10.581Z,0.50
2022-12-05T01:16:40.335Z,0.50
2022-12-05T01:19:10.674Z,0.50
2022-12-05T01:21:40.128Z,0.60
2022-12-05T01:24:08.914Z,0.60
2022-12-05T01:26:37.189Z,0.60
2022-12-05T01:29:05.968Z,0.50
2022-12-05T01:31:36.412Z,0.50
2022-12-05T01:34:06.973Z,0.50
2022-12-05T01:36:35.470Z,0.60
2022-12-05T01:39:05.083Z,0.60
2022-12-05T01:41:35.526Z,0.60
2022-12-05T01:44:05.477Z,0.60
2022-12-05T01:46:35.350Z,0.60
2022-12-05T01:49:08.815Z,0.60
2022-12-05T01:51:39.622Z,0.60
2022-12-05T01:54:11.433Z,0.60
2022-12-05T01:56:43.405Z,0.50
2022-12-05T01:59:12.878Z,0.50
2022-12-05T02:01:42.025Z,0.40
2022-12-05T02:04:10.841Z,0.40
2022-12-05T02:06:38.975Z,0.50
2022-12-05T02:09:07.161Z,0.50
2022-12-05T02:11:44.015Z,0.40
2022-12-05T02:14:25.338Z,0.40
2022-12-05T02:17:00.261Z,0.40
2022-12-05T02:20:03.069Z,0.30
2022-12-05T02:23:03.884Z,0.40
2022-12-05T02:25:56.037Z,0.40
2022-12-05T02:28:57.383Z,0.40
2022-12-05T02:31:32.442Z,0.40
2022-12-05T02:34:06.869Z,0.40
2022-12-05T02:36:41.339Z,0.40
2022-12-05T02:39:16.405Z,0.40
2022-12-05T02:41:50.933Z,0.40
2022-12-05T02:44:23.959Z,0.40
2022-12-05T02:46:55.261Z,0.40
2022-12-05T02:49:26.472Z,0.30
2022-12-05T02:51:58.368Z,0.40
2022-12-05T02:54:30.071Z,0.40
2022-12-05T02:57:00.469Z,0.40
2022-12-05T02:59:29.043Z,0.40
2022-12-05T03:01:59.172Z,0.40
2022-12-05T03:04:29.431Z,0.40
2022-12-05T03:07:00.894Z,0.40
2022-12-05T03:09:35.630Z,0.40
2022-12-05T03:12:13.917Z,0.40
2022-12-05T03:14:48.413Z,0.30
2022-12-05T03:17:21.937Z,0.30
2022-12-05T03:20:01.011Z,0.30
2022-12-05T03:22:33.797Z,0.30
2022-12-05T03:25:03.563Z,0.30
2022-12-05T03:27:42.462Z,0.20
2022-12-05T03:30:13.420Z,0.20
2022-12-05T03:32:49.014Z,0.10
2022-12-05T03:35:23.587Z,0.10
2022-12-05T03:37:55.882Z,0.10
2022-12-05T03:40:33.389Z,0.10
2022-12-05T03:43:10.124Z,0.10
2022-12-05T03:45:45.757Z,0.10
2022-12-05T03:48:20.124Z,0.10
2022-12-05T03:50:50.737Z,0.10
2022-12-05T03:53:22.996Z,0.20
2022-12-05T03:55:59.307Z,0.10
2022-12-05T03:58:31.377Z,0.30
2022-12-05T04:01:02.832Z,0.20
2022-12-05T04:03:40.295Z,0.30
2022-12-05T04:06:15.850Z,0.20
2022-12-05T04:08:48.462Z,0.20
2022-12-05T04:11:21.979Z,0.30
2022-12-05T04:13:53.301Z,0.30
2022-12-05T04:16:42.471Z,0.20
2022-12-05T04:19:19.097Z,0.30
2022-12-05T04:21:49.368Z,0.30
2022-12-05T04:24:38.140Z,0.30
2022-12-05T04:27:16.709Z,0.30
2022-12-05T04:29:49.438Z,0.30
2022-12-05T04:32:20.153Z,0.30
2022-12-05T04:34:56.615Z,0.40
2022-12-05T04:37:26.579Z,0.30
2022-12-05T04:39:59.553Z,0.30
2022-12-05T04:42:31.194Z,0.30
2022-12-05T04:45:09.141Z,0.40
2022-12-05T04:47:41.377Z,0.40
2022-12-05T04:50:13.242Z,0.40
2022-12-05T04:52:42.658Z,0.40
2022-12-05T04:55:14.319Z,0.50
2022-12-05T04:57:50.851Z,0.50
2022-12-05T05:00:19.729Z,0.60
2022-12-05T05:02:53.189Z,0.60
2022-12-05T05:05:24.599Z,0.60
2022-12-05T05:07:55.639Z,0.70
2022-12-05T05:10:30.320Z,0.70
2022-12-05T05:12:58.532Z,0.80
2022-12-05T05:15:26.671Z,0.80
2022-12-05T05:17:54.766Z,0.60
2022-12-05T05:20:27.341Z,0.70
2022-12-05T05:22:57.343Z,0.70
2022-12-05T05:25:26.884Z,0.70
2022-12-05T05:27:57.120Z,0.80
2022-12-05T05:30:26.498Z,0.80
2022-12-05T05:32:55.361Z,0.90
2022-12-05T05:35:25.047Z,0.90
2022-12-05T05:37:53.221Z,0.90
2022-12-05T05:40:21.450Z,0.90
2022-12-05T05:42:51.251Z,1.00
2022-12-05T05:45:19.795Z,0.90
2022-12-05T05:47:50.055Z,1.00
2022-12-05T05:50:21.842Z,1.00
2022-12-05T05:52:51.637Z,1.00
2022-12-05T05:55:20.122Z,0.90
2022-12-05T05:57:48.540Z,1.00
2022-12-05T06:00:17.570Z,1.00
2022-12-05T06:02:45.845Z,1.00
2022-12-05T06:05:14.142Z,1.00
2022-12-05T06:07:42.272Z,1.00
2022-12-05T06:10:12.179Z,1.10
2022-12-05T06:12:40.440Z,1.10
2022-12-05T06:15:09.935Z,1.10
2022-12-05T06:17:38.140Z,1.00
2022-12-05T06:20:08.446Z,1.10
2022-12-05T06:22:36.639Z,1.10
2022-12-05T06:25:05.152Z,1.10
2022-12-05T06:27:35.225Z,1.10
2022-12-05T06:30:03.390Z,1.10
2022-12-05T06:32:32.325Z,1.10
2022-12-05T06:35:00.943Z,1.20
2022-12-05T06:37:29.105Z,1.30
2022-12-05T06:39:57.488Z,1.20
2022-12-05T06:42:25.780Z,1.20
2022-12-05T06:44:55.348Z,1.20
2022-12-05T06:47:23.501Z,1.20
2022-12-05T06:49:51.895Z,1.20
2022-12-05T06:52:20.003Z,1.40
2022-12-05T06:54:48.221Z,1.50
2022-12-05T06:57:16.573Z,1.50
2022-12-05T06:59:44.745Z,1.50
2022-12-05T07:02:13.858Z,1.50
2022-12-05T07:04:42.451Z,1.50
2022-12-05T07:07:10.651Z,1.50
2022-12-05T07:09:48.558Z,1.50
2022-12-05T07:12:19.127Z,1.50
2022-12-05T07:14:49.307Z,1.70
2022-12-05T07:17:19.988Z,1.70
2022-12-05T07:19:49.853Z,1.60
2022-12-05T07:22:18.202Z,1.70
2022-12-05T07:24:47.005Z,1.80
2022-12-05T07:27:18.487Z,1.80
2022-12-05T07:29:48.982Z,1.70
2022-12-05T07:32:17.296Z,1.70
2022-12-05T07:34:49.752Z,1.80
2022-12-05T07:37:21.746Z,1.90
2022-12-05T07:39:50.820Z,2.00
2022-12-05T07:42:19.031Z,2.00
2022-12-05T07:44:47.161Z,2.00
2022-12-05T07:47:15.409Z,2.00
2022-12-05T07:49:43.552Z,2.10
2022-12-05T07:52:13.097Z,2.10
2022-12-05T07:54:41.310Z,2.20
2022-12-05T07:57:10.283Z,2.20
2022-12-05T07:59:38.442Z,2.10
2022-12-05T08:02:06.815Z,2.10
2022-12-05T08:04:34.981Z,2.10
2022-12-05T08:07:03.277Z,2.20
2022-12-05T08:09:32.865Z,2.10
2022-12-05T08:12:01.175Z,2.20
2022-12-05T08:14:29.423Z,2.20
2022-12-05T08:16:57.649Z,2.30
2022-12-05T08:19:25.901Z,2.30
2022-12-05T08:21:55.800Z,2.30
2022-12-05T08:24:24.964Z,2.30
2022-12-05T08:26:54.557Z,2.40
2022-12-05T08:29:23.723Z,2.50
2022-12-05T08:31:53.028Z,2.60
2022-12-05T08:34:22.059Z,2.50
2022-12-05T08:36:50.494Z,2.50
2022-12-05T08:39:20.725Z,2.50
2022-12-05T08:41:49.671Z,2.50
2022-12-05T08:44:19.279Z,2.50
2022-12-05T08:46:50.151Z,2.50
2022-12-05T08:49:19.095Z,2.50
2022-12-05T08:51:47.571Z,2.50
2022-12-05T08:54:16.538Z,2.40
2022-12-05T08:56:44.758Z,2.30
2022-12-05T08:59:13.138Z,2.30
2022-12-05T09:01:43.103Z,2.30
2022-12-05T09:04:12.425Z,2.20
2022-12-05T09:06:41.880Z,2.20
2022-12-05T09:09:11.867Z,2.20
2022-12-05T09:11:46.218Z,2.30
2022-12-05T09:14:14.923Z,2.20
2022-12-05T09:16:46.852Z,2.30
2022-12-05T09:19:16.562Z,2.30
2022-12-05T09:21:45.342Z,2.30
2022-12-05T09:24:15.236Z,2.30
2022-12-05T09:26:43.754Z,2.30
2022-12-05T09:29:17.826Z,2.40
2022-12-05T09:31:51.545Z,2.30
2022-12-05T09:34:20.291Z,2.40
2022-12-05T09:36:55.826Z,2.40
2022-12-05T09:39:29.792Z,2.40
2022-12-05T09:42:19.097Z,2.40
2022-12-05T09:45:04.272Z,2.60
2022-12-05T09:47:49.196Z,2.70
2022-12-05T09:50:22.377Z,2.60
2022-12-05T09:53:06.753Z,2.70
2022-12-05T09:55:44.831Z,2.70
2022-12-05T09:58:42.576Z,2.70
2022-12-05T10:01:32.732Z,2.70
2022-12-05T10:04:34.886Z,2.80
2022-12-05T10:07:11.058Z,2.80
2022-12-05T10:09:56.241Z,2.80
2022-12-05T10:12:43.914Z,2.90
2022-12-05T10:15:17.965Z,2.90
2022-12-05T10:17:52.328Z,3.10
2022-12-05T10:20:26.274Z,3.00
2022-12-05T10:23:02.219Z,3.10
2022-12-05T10:25:32.829Z,3.00
2022-12-05T10:28:04.762Z,3.00
2022-12-05T10:30:36.855Z,3.10
2022-12-05T10:33:14.339Z,3.00
2022-12-05T10:35:43.392Z,3.20
2022-12-05T10:38:18.931Z,3.20
2022-12-05T10:40:50.607Z,3.20
2022-12-05T10:43:27.103Z,3.30
2022-12-05T10:45:55.791Z,3.20
2022-12-05T10:48:24.909Z,3.10
2022-12-05T10:50:55.628Z,3.20
2022-12-05T10:53:28.010Z,3.10
2022-12-05T10:56:28.885Z,3.30
2022-12-05T10:58:56.468Z,3.30
2022-12-05T11:01:27.102Z,3.40
2022-12-05T11:03:59.132Z,3.30
2022-12-05T11:06:29.912Z,3.30
2022-12-05T11:09:05.397Z,3.40
2022-12-05T11:11:35.438Z,3.40
2022-12-05T11:14:05.900Z,3.40
2022-12-05T11:16:37.278Z,3.30
2022-12-05T11:19:24.614Z,3.40
2022-12-05T11:21:53.192Z,3.30
2022-12-05T11:24:29.192Z,3.30
2022-12-05T11:26:58.569Z,3.30
2022-12-05T11:29:31.829Z,3.40
2022-12-05T11:32:00.106Z,3.30
2022-12-05T11:34:32.746Z,3.40
2022-12-05T11:37:06.133Z,3.50
2022-12-05T11:39:35.824Z,3.50
2022-12-05T11:42:27.342Z,3.50
2022-12-05T11:45:22.139Z,3.70
2022-12-05T11:48:05.482Z,3.70
2022-12-05T11:50:42.789Z,3.70
2022-12-05T11:53:27.825Z,3.60
2022-12-05T11:56:06.384Z,3.60
2022-12-05T11:58:48.666Z,3.60
2022-12-05T12:01:26.995Z,3.70
2022-12-05T12:04:17.962Z,3.70
2022-12-05T12:06:56.434Z,3.90
2022-12-05T12:09:43.387Z,3.80
2022-12-05T12:12:21.969Z,3.80
2022-12-05T12:15:00.812Z,3.80
2022-12-05T12:17:36.219Z,3.80
2022-12-05T12:20:19.411Z,3.90
2022-12-05T12:23:15.090Z,3.80
2022-12-05T12:25:53.658Z,3.80
2022-12-05T12:28:38.922Z,3.90
2022-12-05T12:31:31.639Z,3.90
2022-12-05T12:34:11.803Z,3.90
2022-12-05T12:36:46.915Z,3.90
2022-12-05T12:39:31.483Z,3.90
2022-12-05T12:42:20.263Z,4.00
2022-12-05T12:45:24.857Z,4.10
2022-12-05T12:48:10.498Z,4.10
2022-12-05T12:50:44.320Z,4.10
2022-12-05T12:53:32.520Z,4.20
2022-12-05T12:56:08.470Z,4.20
2022-12-05T12:58:48.942Z,4.30
2022-12-05T13:01:28.634Z,4.30
2022-12-05T13:04:04.405Z,4.40
2022-12-05T13:06:39.126Z,4.30
2022-12-05T13:09:13.744Z,4.30
2022-12-05T13:11:44.890Z,4.30
2022-12-05T13:14:16.505Z,4.30
2022-12-05T13:16:48.997Z,4.20
2022-12-05T13:19:27.514Z,4.30
2022-12-05T13:21:58.732Z,4.20
2022-12-05T13:24:29.750Z,4.30
2022-12-05T13:27:01.528Z,4.20
2022-12-05T13:29:34.584Z,4.20
2022-12-05T13:32:05.186Z,4.20
2022-12-05T13:34:48.469Z,4.20
2022-12-05T13:37:41.057Z,4.20
2022-12-05T13:40:43.831Z,4.10
2022-12-05T13:43:14.227Z,4.20
2022-12-05T13:45:53.663Z,4.10
2022-12-05T13:48:26.458Z,4.10
2022-12-05T13:51:01.075Z,4.10
2022-12-05T13:53:37.489Z,4.10
2022-12-05T13:56:08.190Z,4.00
2022-12-05T13:58:47.034Z,4.00
2022-12-05T14:01:48.990Z,4.00
2022-12-05T14:04:43.107Z,4.00
2022-12-05T14:07:13.167Z,3.90
2022-12-05T14:09:53.019Z,3.90
2022-12-05T14:12:32.595Z,3.90
2022-12-05T14:15:01.743Z,4.00
2022-12-05T14:17:32.100Z,3.90
2022-12-05T14:20:17.844Z,3.80
2022-12-05T14:23:03.937Z,3.80
2022-12-05T14:25:54.614Z,3.80
2022-12-05T14:28:42.093Z,3.80
2022-12-05T14:31:24.345Z,3.90
2022-12-05T14:34:07.641Z,3.80
2022-12-05T14:36:38.405Z,3.80
2022-12-05T14:42:02.513Z,3.80
2022-12-05T14:44:32.729Z,3.80
2022-12-05T14:47:05.532Z,3.80
2022-12-05T14:49:52.930Z,3.80
2022-12-05T14:52:23.161Z,3.80
2022-12-05T14:54:53.418Z,3.70
2022-12-05T14:57:23.359Z,3.70
2022-12-05T14:59:55.231Z,3.60
2022-12-05T15:02:27.636Z,3.50
2022-12-05T15:05:02.039Z,3.50
2022-12-05T15:07:34.651Z,3.50
2022-12-05T15:10:06.121Z,3.40
2022-12-05T15:12:41.808Z,3.30
2022-12-05T15:15:17.520Z,3.30
2022-12-05T15:17:48.613Z,3.20
2022-12-05T15:20:22.570Z,3.20
2022-12-05T15:22:50.697Z,3.20
2022-12-05T15:25:24.669Z,3.10
2022-12-05T15:28:04.559Z,3.10
2022-12-05T15:30:36.633Z,3.10
2022-12-05T15:33:05.094Z,3.00
2022-12-05T15:35:35.087Z,3.00
2022-12-05T15:38:09.354Z,3.00
2022-12-05T15:40:40.627Z,2.90
2022-12-05T15:43:37.420Z,2.90
2022-12-05T15:46:10.350Z,2.90
2022-12-05T15:48:38.644Z,2.90
2022-12-05T15:51:07.132Z,2.90
2022-12-05T15:53:38.144Z,2.80
2022-12-05T15:56:10.536Z,2.80
2022-12-05T15:58:44.645Z,2.80
2022-12-05T16:01:16.195Z,2.80
2022-12-05T16:11:11.781Z,2.70
2022-12-05T16:18:38.172Z,2.70
2022-12-05T16:21:37.675Z,2.70
2022-12-05T16:24:09.680Z,2.60
2022-12-05T16:26:40.598Z,2.70
2022-12-05T16:29:28.322Z,2.60
2022-12-05T16:31:57.901Z,2.60
2022-12-05T16:34:28.959Z,2.60
2022-12-05T16:36:58.316Z,2.60
2022-12-05T16:39:28.984Z,2.70
2022-12-05T16:41:57.562Z,2.70
2022-12-05T16:45:04.665Z,2.70
2022-12-05T16:47:55.001Z,2.70
2022-12-05T16:50:32.487Z,2.80
2022-12-05T16:53:14.428Z,2.80
2022-12-05T16:55:44.315Z,2.70
2022-12-05T16:58:24.825Z,2.70
2022-12-05T17:00:59.561Z,2.70
2022-12-05T17:03:36.241Z,2.70
2022-12-05T17:06:06.222Z,2.70
2022-12-05T17:08:34.366Z,2.60
2022-12-05T17:11:04.262Z,2.60
2022-12-05T17:13:33.080Z,2.60
2022-12-05T17:16:01.575Z,2.50
2022-12-05T17:18:32.029Z,2.50
2022-12-05T17:21:02.619Z,2.50
2022-12-05T17:23:32.184Z,2.40
2022-12-05T17:26:00.805Z,2.50
2022-12-05T17:28:29.168Z,2.40
2022-12-05T17:30:57.396Z,2.40
2022-12-05T17:33:25.649Z,2.40
2022-12-05T17:35:53.975Z,2.40
2022-12-05T17:38:22.047Z,2.40
2022-12-05T17:40:51.727Z,2.40
2022-12-05T17:43:24.787Z,2.40
2022-12-05T17:45:54.705Z,2.40
2022-12-05T17:48:23.209Z,2.50
2022-12-05T17:50:51.438Z,2.50
2022-12-05T17:53:22.097Z,3.40
2022-12-05T17:55:52.103Z,2.60
2022-12-05T17:58:21.393Z,2.50
2022-12-05T18:00:49.835Z,2.50
2022-12-05T18:03:21.269Z,2.40
2022-12-05T18:05:49.322Z,2.30
2022-12-05T18:08:18.004Z,2.20
2022-12-05T18:10:47.697Z,2.10
2022-12-05T18:13:18.699Z,2.00
2022-12-05T18:15:49.654Z,2.00
2022-12-05T18:18:19.249Z,1.90
2022-12-05T18:20:47.427Z,1.90
2022-12-05T18:23:16.082Z,1.90
2022-12-05T18:25:44.430Z,1.90
2022-12-05T18:28:16.397Z,1.90
2022-12-05T18:30:49.033Z,1.90
2022-12-05T18:33:17.177Z,1.90
2022-12-05T18:35:45.935Z,1.90
2022-12-05T18:38:14.342Z,1.90
2022-12-05T18:40:42.546Z,1.90
2022-12-05T18:43:10.642Z,1.90
2022-12-05T18:45:39.038Z,1.80
2022-12-05T18:48:31.495Z,1.80
2022-12-05T18:50:56.726Z,1.80
2022-12-05T18:53:24.784Z,1.80
2022-12-05T18:56:20.954Z,1.80
2022-12-05T18:58:41.483Z,1.80
2022-12-05T19:01:11.617Z,1.80
2022-12-05T19:03:41.876Z,1.70
2022-12-05T19:06:14.685Z,1.70
2022-12-05T19:08:44.400Z,1.70
2022-12-05T19:11:14.210Z,1.70
2022-12-05T19:13:42.442Z,1.60
2022-12-05T19:16:14.431Z,1.60
2022-12-05T19:18:44.269Z,1.60
2022-12-05T19:21:12.814Z,1.50
2022-12-05T19:23:41.010Z,1.50
2022-12-05T19:26:10.714Z,1.50
2022-12-05T19:28:39.806Z,1.50
2022-12-05T19:31:11.091Z,1.40
2022-12-05T19:33:40.813Z,1.40
2022-12-05T19:36:13.359Z,1.40
2022-12-05T19:38:43.670Z,1.40
2022-12-05T19:41:14.637Z,1.30
2022-12-05T19:43:44.843Z,1.30
2022-12-05T19:46:15.256Z,1.40
2022-12-05T19:48:43.654Z,1.30
2022-12-05T19:51:13.503Z,1.30
2022-12-05T19:53:43.963Z,1.30
2022-12-05T19:56:16.115Z,1.30
2022-12-05T19:58:44.440Z,1.20
2022-12-05T20:01:16.024Z,1.30
2022-12-05T20:03:47.790Z,1.30
2022-12-05T20:06:17.807Z,1.30
2022-12-05T20:08:47.236Z,1.30
2022-12-05T20:11:18.274Z,1.30
2022-12-05T20:13:47.657Z,1.20
2022-12-05T20:16:19.417Z,1.20
2022-12-05T20:18:47.685Z,1.20
2022-12-05T20:21:19.154Z,1.20
2022-12-05T20:23:47.773Z,1.20
2022-12-05T20:26:18.307Z,1.10
2022-12-05T20:28:46.852Z,1.10
2022-12-05T20:31:17.489Z,1.10
2022-12-05T20:33:46.061Z,1.00
2022-12-05T20:36:16.287Z,1.00
2022-12-05T20:38:46.083Z,1.10
2022-12-05T20:41:16.401Z,1.10
2022-12-05T20:43:45.872Z,1.00
2022-12-05T20:46:16.913Z,1.00
2022-12-05T20:48:45.913Z,1.00
2022-12-05T20:51:16.365Z,0.90
2022-12-05T20:53:46.706Z,0.90
2022-12-05T20:56:16.434Z,0.90
2022-12-05T20:58:46.424Z,0.80
2022-12-05T21:01:15.747Z,0.90
2022-12-05T21:03:45.466Z,0.90
2022-12-05T21:06:17.351Z,1.00
2022-12-05T21:08:46.926Z,1.00
2022-12-05T21:11:15.769Z,1.00
2022-12-05T21:13:44.004Z,1.00
2022-12-05T21:16:14.967Z,1.00
2022-12-05T21:18:43.850Z,1.00
2022-12-05T21:21:15.564Z,1.00
2022-12-05T21:23:44.281Z,1.00
2022-12-05T21:26:15.720Z,1.00
2022-12-05T21:28:45.398Z,0.90
2022-12-05T21:31:16.027Z,1.00
2022-12-05T21:33:48.119Z,0.90
2022-12-05T21:36:16.694Z,0.90
2022-12-05T21:38:46.630Z,0.90
2022-12-05T21:41:19.152Z,0.90
2022-12-05T21:43:52.451Z,0.90
2022-12-05T21:46:22.470Z,0.90
2022-12-05T21:48:50.754Z,1.00
2022-12-05T21:51:19.809Z,0.90
2022-12-05T21:53:47.989Z,1.00
2022-12-05T21:56:19.830Z,1.00
2022-12-05T21:58:48.454Z,0.90
2022-12-05T22:01:18.527Z,0.90
2022-12-05T22:03:47.292Z,0.90
2022-12-05T22:06:16.240Z,0.90
2022-12-05T22:08:44.680Z,0.90
2022-12-05T22:11:14.412Z,0.90
2022-12-05T22:13:45.829Z,0.90
2022-12-05T22:16:14.693Z,0.90
2022-12-05T22:18:43.344Z,0.90
2022-12-05T22:21:13.797Z,0.90
2022-12-05T22:23:42.121Z,0.80
2022-12-05T22:26:12.297Z,0.90
2022-12-05T22:28:41.421Z,0.90
2022-12-05T22:31:13.314Z,0.90
2022-12-05T22:33:41.809Z,0.90
2022-12-05T22:36:11.967Z,1.00
2022-12-05T22:38:43.496Z,1.00
2022-12-05T22:41:14.182Z,1.00
2022-12-05T22:43:43.603Z,1.00
2022-12-05T22:46:15.560Z,0.90
2022-12-05T22:48:43.757Z,0.90
2022-12-05T22:51:12.482Z,0.90
2022-12-05T22:53:41.055Z,0.80
2022-12-05T22:56:11.125Z,0.70
2022-12-05T22:58:39.901Z,0.70
2022-12-05T23:01:14.924Z,0.70
2022-12-05T23:03:44.663Z,0.70
2022-12-05T23:06:14.526Z,0.70
2022-12-05T23:08:44.946Z,0.70
2022-12-05T23:11:13.424Z,0.70
2022-12-05T23:13:41.540Z,0.60
2022-12-05T23:16:13.095Z,0.70
2022-12-05T23:18:47.671Z,0.70
2022-12-05T23:21:17.886Z,0.70
2022-12-05T23:23:46.639Z,0.70
2022-12-05T23:26:15.385Z,0.60
2022-12-05T23:28:43.959Z,0.60
2022-12-05T23:31:14.384Z,0.60
2022-12-05T23:33:43.182Z,0.60
2022-12-05T23:36:12.116Z,0.60
2022-12-05T23:38:42.029Z,0.60
2022-12-05T23:41:13.328Z,0.60
2022-12-05T23:43:41.922Z,0.60
2022-12-05T23:46:12.034Z,0.60
2022-12-05T23:48:41.713Z,0.50
2022-12-05T23:51:13.218Z,0.50
2022-12-05T23:53:43.115Z,0.50
2022-12-05T23:56:12.839Z,0.50
2022-12-05T23:58:41.906Z,0.50
